sensor_id;sensor_type;location;lat;lon;timestamp;pressure;altitude;pressure_sealevel;temperature;humidity
37860;BME280;23698;52.014;5.190;2023-04-04T00:00:56;102996.84;;;3.53;100.00
37860;BME280;23698;52.014;5.190;2023-04-04T00:03:42;102994.31;;;3.36;100.00
37860;BME280;23698;52.014;5.190;2023-04-04T00:06:30;102988.13;;;3.19;100.00
37860;BME280;23698;52.014;5.190;2023-04-04T00:09:17;102992.06;;;2.98;100.00
37860;BME280;23698;52.014;5.190;2023-04-04T00:12:04;102986.41;;;3.18;100.00
37860;BME280;23698;52.014;5.190;2023-04-04T00:14:50;102991.44;;;3.09;100.00
37860;BME280;23698;52.014;5.190;2023-04-04T00:17:37;102997.25;;;3.31;100.00
37860;BME280;23698;52.014;5.190;2023-04-04T00:20:23;102981.13;;;3.17;100.00
37860;BME280;23698;52.014;5.190;2023-04-04T00:23:11;102978.28;;;3.20;100.00
37860;BME280;23698;52.014;5.190;2023-04-04T00:25:57;102974.41;;;3.10;100.00
37860;BME280;23698;52.014;5.190;2023-04-04T00:28:44;102971.28;;;3.17;100.00
37860;BME280;23698;52.014;5.190;2023-04-04T00:31:31;102970.31;;;2.88;100.00
37860;BME280;23698;52.014;5.190;2023-04-04T00:34:17;102975.38;;;3.39;100.00
37860;BME280;23698;52.014;5.190;2023-04-04T00:37:04;102964.00;;;3.50;100.00
37860;BME280;23698;52.014;5.190;2023-04-04T00:39:52;102965.22;;;2.83;100.00
37860;BME280;23698;52.014;5.190;2023-04-04T00:42:39;102959.13;;;2.50;100.00
37860;BME280;23698;52.014;5.190;2023-04-04T00:45:25;102962.47;;;2.21;100.00
37860;BME280;23698;52.014;5.190;2023-04-04T00:48:12;102962.38;;;2.07;100.00
37860;BME280;23698;52.014;5.190;2023-04-04T00:50:59;102955.66;;;2.00;100.00
37860;BME280;23698;52.014;5.190;2023-04-04T00:53:46;102963.69;;;2.00;100.00
37860;BME280;23698;52.014;5.190;2023-04-04T00:56:35;102960.91;;;2.01;100.00
37860;BME280;23698;52.014;5.190;2023-04-04T00:59:24;102952.81;;;2.03;100.00
37860;BME280;23698;52.014;5.190;2023-04-04T01:02:11;102953.22;;;1.95;100.00
37860;BME280;23698;52.014;5.190;2023-04-04T01:04:59;102954.13;;;1.78;100.00
37860;BME280;23698;52.014;5.190;2023-04-04T01:07:45;102960.50;;;1.76;100.00
37860;BME280;23698;52.014;5.190;2023-04-04T01:10:32;102954.38;;;1.74;100.00
37860;BME280;23698;52.014;5.190;2023-04-04T01:13:20;102960.66;;;1.73;100.00
37860;BME280;23698;52.014;5.190;2023-04-04T01:16:08;102948.06;;;1.75;100.00
37860;BME280;23698;52.014;5.190;2023-04-04T01:18:55;102952.56;;;2.71;100.00
37860;BME280;23698;52.014;5.190;2023-04-04T01:21:42;102947.16;;;2.87;100.00
37860;BME280;23698;52.014;5.190;2023-04-04T01:24:32;102951.06;;;2.81;100.00
37860;BME280;23698;52.014;5.190;2023-04-04T01:27:22;102958.31;;;2.63;100.00
37860;BME280;23698;52.014;5.190;2023-04-04T01:30:15;102947.28;;;2.70;100.00
37860;BME280;23698;52.014;5.190;2023-04-04T01:33:08;102953.28;;;2.89;100.00
37860;BME280;23698;52.014;5.190;2023-04-04T01:36:02;102954.22;;;3.04;100.00
37860;BME280;23698;52.014;5.190;2023-04-04T01:38:53;102954.09;;;3.06;100.00
37860;BME280;23698;52.014;5.190;2023-04-04T01:41:47;102956.38;;;2.97;100.00
37860;BME280;23698;52.014;5.190;2023-04-04T01:44:35;102955.88;;;2.91;100.00
37860;BME280;23698;52.014;5.190;2023-04-04T01:47:22;102956.41;;;2.81;100.00
37860;BME280;23698;52.014;5.190;2023-04-04T01:50:10;102948.47;;;2.80;100.00
37860;BME280;23698;52.014;5.190;2023-04-04T01:52:56;102960.69;;;2.54;100.00
37860;BME280;23698;52.014;5.190;2023-04-04T01:55:42;102962.56;;;2.20;100.00
37860;BME280;23698;52.014;5.190;2023-04-04T01:58:29;102953.31;;;2.73;100.00
37860;BME280;23698;52.014;5.190;2023-04-04T02:01:17;102954.59;;;3.43;100.00
37860;BME280;23698;52.014;5.190;2023-04-04T02:04:04;102959.84;;;3.44;100.00
37860;BME280;23698;52.014;5.190;2023-04-04T02:06:51;102961.06;;;3.38;100.00
37860;BME280;23698;52.014;5.190;2023-04-04T02:09:37;102952.22;;;3.08;100.00
37860;BME280;23698;52.014;5.190;2023-04-04T02:12:24;102952.44;;;3.33;100.00
37860;BME280;23698;52.014;5.190;2023-04-04T02:15:11;102948.19;;;3.59;100.00
37860;BME280;23698;52.014;5.190;2023-04-04T02:18:00;102953.13;;;3.37;100.00
37860;BME280;23698;52.014;5.190;2023-04-04T02:20:54;102960.63;;;3.16;100.00
37860;BME280;23698;52.014;5.190;2023-04-04T02:23:40;102964.19;;;2.70;100.00
37860;BME280;23698;52.014;5.190;2023-04-04T02:26:27;102965.28;;;2.52;100.00
37860;BME280;23698;52.014;5.190;2023-04-04T02:29:13;102958.41;;;2.78;100.00
37860;BME280;23698;52.014;5.190;2023-04-04T02:32:01;102961.72;;;2.51;100.00
37860;BME280;23698;52.014;5.190;2023-04-04T02:34:49;102960.94;;;2.49;100.00
37860;BME280;23698;52.014;5.190;2023-04-04T02:37:36;102959.00;;;2.67;100.00
37860;BME280;23698;52.014;5.190;2023-04-04T02:40:26;102958.72;;;2.25;100.00
37860;BME280;23698;52.014;5.190;2023-04-04T02:43:12;102954.44;;;2.21;100.00
37860;BME280;23698;52.014;5.190;2023-04-04T02:45:59;102952.66;;;2.38;100.00
37860;BME280;23698;52.014;5.190;2023-04-04T02:49:02;102951.16;;;2.48;100.00
37860;BME280;23698;52.014;5.190;2023-04-04T02:51:52;102948.84;;;2.42;100.00
37860;BME280;23698;52.014;5.190;2023-04-04T02:54:39;102944.78;;;2.51;100.00
37860;BME280;23698;52.014;5.190;2023-04-04T02:57:28;102940.91;;;2.24;100.00
37860;BME280;23698;52.014;5.190;2023-04-04T03:00:15;102934.56;;;1.94;100.00
37860;BME280;23698;52.014;5.190;2023-04-04T03:03:02;102933.72;;;1.93;100.00
37860;BME280;23698;52.014;5.190;2023-04-04T03:05:54;102927.69;;;2.05;100.00
37860;BME280;23698;52.014;5.190;2023-04-04T03:08:42;102928.28;;;2.11;100.00
37860;BME280;23698;52.014;5.190;2023-04-04T03:11:28;102924.75;;;2.42;100.00
37860;BME280;23698;52.014;5.190;2023-04-04T03:14:15;102921.72;;;2.16;100.00
37860;BME280;23698;52.014;5.190;2023-04-04T03:17:01;102926.66;;;2.08;100.00
37860;BME280;23698;52.014;5.190;2023-04-04T03:19:48;102922.94;;;1.95;100.00
37860;BME280;23698;52.014;5.190;2023-04-04T03:22:36;102930.16;;;1.77;100.00
37860;BME280;23698;52.014;5.190;2023-04-04T03:25:24;102928.47;;;2.07;100.00
37860;BME280;23698;52.014;5.190;2023-04-04T03:28:12;102931.03;;;2.57;100.00
37860;BME280;23698;52.014;5.190;2023-04-04T03:31:02;102939.28;;;2.38;100.00
37860;BME280;23698;52.014;5.190;2023-04-04T03:33:51;102934.19;;;2.17;100.00
37860;BME280;23698;52.014;5.190;2023-04-04T03:36:39;102927.78;;;2.20;100.00
37860;BME280;23698;52.014;5.190;2023-04-04T03:39:26;102930.81;;;2.30;100.00
37860;BME280;23698;52.014;5.190;2023-04-04T03:42:16;102922.00;;;2.12;100.00
37860;BME280;23698;52.014;5.190;2023-04-04T03:45:02;102926.75;;;2.06;100.00
37860;BME280;23698;52.014;5.190;2023-04-04T03:47:50;102923.88;;;1.94;100.00
37860;BME280;23698;52.014;5.190;2023-04-04T03:50:38;102915.53;;;2.00;100.00
37860;BME280;23698;52.014;5.190;2023-04-04T03:53:25;102920.34;;;1.93;100.00
37860;BME280;23698;52.014;5.190;2023-04-04T03:56:12;102919.97;;;1.83;100.00
37860;BME280;23698;52.014;5.190;2023-04-04T03:58:59;102918.53;;;1.60;100.00
37860;BME280;23698;52.014;5.190;2023-04-04T04:01:46;102919.59;;;1.58;100.00
37860;BME280;23698;52.014;5.190;2023-04-04T04:04:32;102921.25;;;1.43;100.00
37860;BME280;23698;52.014;5.190;2023-04-04T04:07:19;102920.72;;;1.36;100.00
37860;BME280;23698;52.014;5.190;2023-04-04T04:10:05;102924.66;;;1.29;100.00
37860;BME280;23698;52.014;5.190;2023-04-04T04:12:52;102926.28;;;1.49;100.00
37860;BME280;23698;52.014;5.190;2023-04-04T04:15:40;102929.94;;;1.64;100.00
37860;BME280;23698;52.014;5.190;2023-04-04T04:18:33;102923.97;;;1.59;100.00
37860;BME280;23698;52.014;5.190;2023-04-04T04:21:22;102928.00;;;1.50;100.00
37860;BME280;23698;52.014;5.190;2023-04-04T04:24:09;102927.16;;;1.32;100.00
37860;BME280;23698;52.014;5.190;2023-04-04T04:26:55;102934.38;;;1.47;100.00
37860;BME280;23698;52.014;5.190;2023-04-04T04:29:42;102927.41;;;1.10;100.00
37860;BME280;23698;52.014;5.190;2023-04-04T04:32:30;102920.09;;;0.96;100.00
37860;BME280;23698;52.014;5.190;2023-04-04T04:35:16;102912.34;;;0.91;100.00
37860;BME280;23698;52.014;5.190;2023-04-04T04:38:03;102920.66;;;0.85;100.00
37860;BME280;23698;52.014;5.190;2023-04-04T04:40:50;102920.28;;;1.10;100.00
37860;BME280;23698;52.014;5.190;2023-04-04T04:43:44;102927.25;;;1.30;100.00
37860;BME280;23698;52.014;5.190;2023-04-04T04:46:30;102927.94;;;1.34;100.00
37860;BME280;23698;52.014;5.190;2023-04-04T04:49:19;102929.09;;;1.63;100.00
37860;BME280;23698;52.014;5.190;2023-04-04T04:52:07;102928.88;;;1.50;100.00
37860;BME280;23698;52.014;5.190;2023-04-04T04:54:54;102938.00;;;1.46;100.00
37860;BME280;23698;52.014;5.190;2023-04-04T04:57:42;102936.56;;;1.57;100.00
37860;BME280;23698;52.014;5.190;2023-04-04T05:00:35;102939.16;;;1.92;100.00
37860;BME280;23698;52.014;5.190;2023-04-04T05:03:24;102943.66;;;2.07;100.00
37860;BME280;23698;52.014;5.190;2023-04-04T05:06:12;102946.38;;;1.74;100.00
37860;BME280;23698;52.014;5.190;2023-04-04T05:08:59;102944.75;;;1.54;100.00
37860;BME280;23698;52.014;5.190;2023-04-04T05:11:49;102937.03;;;1.65;100.00
37860;BME280;23698;52.014;5.190;2023-04-04T05:14:39;102941.69;;;1.61;100.00
37860;BME280;23698;52.014;5.190;2023-04-04T05:17:25;102935.25;;;1.48;100.00
37860;BME280;23698;52.014;5.190;2023-04-04T05:20:18;102950.09;;;1.54;100.00
37860;BME280;23698;52.014;5.190;2023-04-04T05:23:08;102945.47;;;1.40;100.00
37860;BME280;23698;52.014;5.190;2023-04-04T05:25:58;102940.72;;;1.62;100.00
37860;BME280;23698;52.014;5.190;2023-04-04T05:28:49;102938.72;;;1.66;100.00
37860;BME280;23698;52.014;5.190;2023-04-04T05:31:36;102931.63;;;1.49;100.00
37860;BME280;23698;52.014;5.190;2023-04-04T05:34:30;102943.16;;;1.67;100.00
37860;BME280;23698;52.014;5.190;2023-04-04T05:37:17;102943.19;;;1.32;100.00
37860;BME280;23698;52.014;5.190;2023-04-04T05:40:08;102944.59;;;1.39;100.00
37860;BME280;23698;52.014;5.190;2023-04-04T05:42:55;102940.13;;;1.40;100.00
37860;BME280;23698;52.014;5.190;2023-04-04T05:45:48;102937.31;;;1.25;100.00
37860;BME280;23698;52.014;5.190;2023-04-04T05:48:35;102943.66;;;1.58;100.00
37860;BME280;23698;52.014;5.190;2023-04-04T05:51:22;102940.22;;;2.05;100.00
37860;BME280;23698;52.014;5.190;2023-04-04T05:54:25;102947.56;;;2.17;100.00
37860;BME280;23698;52.014;5.190;2023-04-04T05:57:15;102954.13;;;2.12;100.00
37860;BME280;23698;52.014;5.190;2023-04-04T06:00:08;102960.94;;;2.33;100.00
37860;BME280;23698;52.014;5.190;2023-04-04T06:02:58;102953.59;;;2.53;100.00
37860;BME280;23698;52.014;5.190;2023-04-04T06:05:49;102949.59;;;2.60;100.00
37860;BME280;23698;52.014;5.190;2023-04-04T06:08:36;102948.81;;;2.74;100.00
37860;BME280;23698;52.014;5.190;2023-04-04T06:11:37;102944.69;;;2.68;100.00
37860;BME280;23698;52.014;5.190;2023-04-04T06:14:27;102959.97;;;2.66;100.00
37860;BME280;23698;52.014;5.190;2023-04-04T06:17:15;102949.38;;;2.95;100.00
37860;BME280;23698;52.014;5.190;2023-04-04T06:20:02;102945.66;;;2.97;100.00
37860;BME280;23698;52.014;5.190;2023-04-04T06:22:51;102950.44;;;2.92;100.00
37860;BME280;23698;52.014;5.190;2023-04-04T06:25:37;102946.13;;;2.74;100.00
37860;BME280;23698;52.014;5.190;2023-04-04T06:28:24;102942.25;;;3.10;100.00
37860;BME280;23698;52.014;5.190;2023-04-04T06:31:12;102943.63;;;3.31;100.00
37860;BME280;23698;52.014;5.190;2023-04-04T06:33:59;102936.31;;;3.78;100.00
37860;BME280;23698;52.014;5.190;2023-04-04T06:36:51;102946.19;;;3.77;100.00
37860;BME280;23698;52.014;5.190;2023-04-04T06:39:40;102944.28;;;3.80;100.00
37860;BME280;23698;52.014;5.190;2023-04-04T06:42:36;102945.66;;;4.14;100.00
37860;BME280;23698;52.014;5.190;2023-04-04T06:45:24;102946.38;;;4.45;100.00
37860;BME280;23698;52.014;5.190;2023-04-04T06:48:13;102957.44;;;4.26;100.00
37860;BME280;23698;52.014;5.190;2023-04-04T06:50:59;102954.59;;;4.00;100.00
37860;BME280;23698;52.014;5.190;2023-04-04T06:53:46;102956.97;;;4.19;100.00
37860;BME280;23698;52.014;5.190;2023-04-04T06:56:32;102980.28;;;4.19;100.00
37860;BME280;23698;52.014;5.190;2023-04-04T06:59:19;102983.03;;;4.46;100.00
37860;BME280;23698;52.014;5.190;2023-04-04T07:02:05;102977.31;;;4.92;100.00
37860;BME280;23698;52.014;5.190;2023-04-04T07:04:53;102981.31;;;4.99;100.00
37860;BME280;23698;52.014;5.190;2023-04-04T07:07:40;102988.06;;;4.65;100.00
37860;BME280;23698;52.014;5.190;2023-04-04T07:10:26;102982.66;;;4.38;100.00
37860;BME280;23698;52.014;5.190;2023-04-04T07:13:12;102982.66;;;4.79;100.00
37860;BME280;23698;52.014;5.190;2023-04-04T07:15:59;102969.41;;;5.03;100.00
37860;BME280;23698;52.014;5.190;2023-04-04T07:18:46;102974.00;;;5.54;100.00
37860;BME280;23698;52.014;5.190;2023-04-04T07:21:34;102980.34;;;5.66;100.00
37860;BME280;23698;52.014;5.190;2023-04-04T07:24:20;102975.16;;;5.37;100.00
37860;BME280;23698;52.014;5.190;2023-04-04T07:27:07;102987.78;;;5.75;100.00
37860;BME280;23698;52.014;5.190;2023-04-04T07:29:54;102996.63;;;6.03;100.00
37860;BME280;23698;52.014;5.190;2023-04-04T07:32:40;102987.28;;;6.46;100.00
37860;BME280;23698;52.014;5.190;2023-04-04T07:35:27;102993.50;;;6.09;100.00
37860;BME280;23698;52.014;5.190;2023-04-04T07:38:14;102979.75;;;6.75;100.00
37860;BME280;23698;52.014;5.190;2023-04-04T07:41:01;102979.34;;;6.68;100.00
37860;BME280;23698;52.014;5.190;2023-04-04T07:43:48;102973.09;;;7.27;100.00
37860;BME280;23698;52.014;5.190;2023-04-04T07:46:35;102968.97;;;6.99;100.00
37860;BME280;23698;52.014;5.190;2023-04-04T07:49:22;102980.97;;;6.21;100.00
37860;BME280;23698;52.014;5.190;2023-04-04T07:52:08;102970.31;;;6.56;100.00
37860;BME280;23698;52.014;5.190;2023-04-04T07:54:56;102983.00;;;6.91;100.00
37860;BME280;23698;52.014;5.190;2023-04-04T07:57:44;102971.72;;;7.22;100.00
37860;BME280;23698;52.014;5.190;2023-04-04T08:00:31;102973.97;;;7.04;100.00
37860;BME280;23698;52.014;5.190;2023-04-04T08:03:17;102970.81;;;7.56;100.00
37860;BME280;23698;52.014;5.190;2023-04-04T08:06:04;102963.50;;;7.70;100.00
37860;BME280;23698;52.014;5.190;2023-04-04T08:08:50;102970.53;;;7.26;100.00
37860;BME280;23698;52.014;5.190;2023-04-04T08:11:37;102965.69;;;8.55;100.00
37860;BME280;23698;52.014;5.190;2023-04-04T08:14:24;102975.38;;;8.58;100.00
37860;BME280;23698;52.014;5.190;2023-04-04T08:17:11;102973.06;;;7.85;100.00
37860;BME280;23698;52.014;5.190;2023-04-04T08:19:58;102971.09;;;7.87;100.00
37860;BME280;23698;52.014;5.190;2023-04-04T08:22:44;102963.63;;;7.80;100.00
37860;BME280;23698;52.014;5.190;2023-04-04T08:25:30;102969.53;;;7.96;100.00
37860;BME280;23698;52.014;5.190;2023-04-04T08:28:20;102964.97;;;8.08;100.00
37860;BME280;23698;52.014;5.190;2023-04-04T08:31:06;102966.31;;;8.25;100.00
37860;BME280;23698;52.014;5.190;2023-04-04T08:33:54;102967.59;;;8.76;100.00
37860;BME280;23698;52.014;5.190;2023-04-04T08:36:41;102967.25;;;9.43;100.00
37860;BME280;23698;52.014;5.190;2023-04-04T08:39:27;102965.44;;;8.58;100.00
37860;BME280;23698;52.014;5.190;2023-04-04T08:42:14;102966.09;;;9.88;100.00
37860;BME280;23698;52.014;5.190;2023-04-04T08:45:07;102961.78;;;9.13;100.00
37860;BME280;23698;52.014;5.190;2023-04-04T08:47:57;102970.00;;;10.36;100.00
37860;BME280;23698;52.014;5.190;2023-04-04T08:50:44;102963.41;;;10.79;100.00
37860;BME280;23698;52.014;5.190;2023-04-04T08:53:31;102970.81;;;10.27;98.66
37860;BME280;23698;52.014;5.190;2023-04-04T08:56:19;102970.13;;;9.21;96.47
37860;BME280;23698;52.014;5.190;2023-04-04T08:59:06;102958.66;;;9.80;98.07
37860;BME280;23698;52.014;5.190;2023-04-04T09:01:56;102963.91;;;10.13;98.03
37860;BME280;23698;52.014;5.190;2023-04-04T09:04:46;102961.50;;;10.50;96.03
37860;BME280;23698;52.014;5.190;2023-04-04T09:07:50;102964.56;;;10.26;93.67
37860;BME280;23698;52.014;5.190;2023-04-04T09:10:37;102971.97;;;10.24;100.00
37860;BME280;23698;52.014;5.190;2023-04-04T09:13:25;102959.25;;;11.04;96.08
37860;BME280;23698;52.014;5.190;2023-04-04T09:16:12;102974.84;;;10.32;97.20
37860;BME280;23698;52.014;5.190;2023-04-04T09:18:59;102954.31;;;9.26;96.53
37860;BME280;23698;52.014;5.190;2023-04-04T09:21:46;102960.56;;;9.90;99.39
37860;BME280;23698;52.014;5.190;2023-04-04T09:24:40;102961.09;;;10.65;99.33
37860;BME280;23698;52.014;5.190;2023-04-04T09:27:27;102963.59;;;10.06;99.00
37860;BME280;23698;52.014;5.190;2023-04-04T09:30:14;102959.19;;;9.74;95.79
37860;BME280;23698;52.014;5.190;2023-04-04T09:33:03;102955.03;;;10.32;96.55
37860;BME280;23698;52.014;5.190;2023-04-04T09:35:54;102960.59;;;9.99;98.91
37860;BME280;23698;52.014;5.190;2023-04-04T09:38:41;102959.34;;;10.13;89.82
37860;BME280;23698;52.014;5.190;2023-04-04T09:41:29;102961.38;;;10.81;88.24
37860;BME280;23698;52.014;5.190;2023-04-04T09:44:16;102958.09;;;10.97;83.89
37860;BME280;23698;52.014;5.190;2023-04-04T09:47:10;102948.53;;;10.73;81.22
37860;BME280;23698;52.014;5.190;2023-04-04T09:50:20;102957.38;;;10.56;85.45
37860;BME280;23698;52.014;5.190;2023-04-04T09:53:15;102956.13;;;10.70;79.84
37860;BME280;23698;52.014;5.190;2023-04-04T09:56:02;102950.13;;;10.86;81.01
37860;BME280;23698;52.014;5.190;2023-04-04T09:58:48;102941.91;;;9.96;80.12
37860;BME280;23698;52.014;5.190;2023-04-04T10:01:47;102944.13;;;10.22;79.31
37860;BME280;23698;52.014;5.190;2023-04-04T10:04:35;102942.09;;;10.55;80.04
37860;BME280;23698;52.014;5.190;2023-04-04T10:07:23;102930.84;;;10.89;85.68
37860;BME280;23698;52.014;5.190;2023-04-04T10:10:12;102936.06;;;11.39;83.76
37860;BME280;23698;52.014;5.190;2023-04-04T10:12:59;102931.22;;;11.43;83.22
37860;BME280;23698;52.014;5.190;2023-04-04T10:15:46;102925.47;;;11.46;80.30
37860;BME280;23698;52.014;5.190;2023-04-04T10:18:33;102923.91;;;11.43;79.82
37860;BME280;23698;52.014;5.190;2023-04-04T10:21:20;102922.25;;;11.13;75.98
37860;BME280;23698;52.014;5.190;2023-04-04T10:24:08;102923.13;;;11.04;78.92
37860;BME280;23698;52.014;5.190;2023-04-04T10:26:55;102927.50;;;10.46;80.36
37860;BME280;23698;52.014;5.190;2023-04-04T10:29:42;102923.31;;;10.23;80.28
37860;BME280;23698;52.014;5.190;2023-04-04T10:32:33;102917.66;;;11.23;75.97
37860;BME280;23698;52.014;5.190;2023-04-04T10:35:23;102913.19;;;11.99;76.59
37860;BME280;23698;52.014;5.190;2023-04-04T10:38:11;102922.22;;;12.17;72.51
37860;BME280;23698;52.014;5.190;2023-04-04T10:40:58;102909.69;;;12.88;72.55
37860;BME280;23698;52.014;5.190;2023-04-04T10:43:47;102909.91;;;12.77;75.01
37860;BME280;23698;52.014;5.190;2023-04-04T10:46:37;102908.47;;;11.44;72.95
37860;BME280;23698;52.014;5.190;2023-04-04T10:49:27;102904.47;;;11.85;78.54
37860;BME280;23698;52.014;5.190;2023-04-04T10:52:17;102896.81;;;11.71;73.18
37860;BME280;23698;52.014;5.190;2023-04-04T10:55:05;102901.56;;;11.97;73.05
37860;BME280;23698;52.014;5.190;2023-04-04T10:57:53;102891.94;;;12.30;73.35
37860;BME280;23698;52.014;5.190;2023-04-04T11:00:49;102893.81;;;12.30;74.92
37860;BME280;23698;52.014;5.190;2023-04-04T11:04:14;102885.13;;;11.98;72.83
37860;BME280;23698;52.014;5.190;2023-04-04T11:07:13;102889.38;;;11.73;74.05
37860;BME280;23698;52.014;5.190;2023-04-04T11:10:00;102883.34;;;12.07;70.99
37860;BME280;23698;52.014;5.190;2023-04-04T11:12:51;102881.28;;;12.91;71.71
37860;BME280;23698;52.014;5.190;2023-04-04T11:15:58;102892.38;;;11.32;68.96
37860;BME280;23698;52.014;5.190;2023-04-04T11:18:46;102881.97;;;12.21;72.77
37860;BME280;23698;52.014;5.190;2023-04-04T11:21:33;102882.13;;;12.91;71.57
37860;BME280;23698;52.014;5.190;2023-04-04T11:24:19;102880.84;;;12.59;68.69
37860;BME280;23698;52.014;5.190;2023-04-04T11:27:06;102869.41;;;12.20;69.45
37860;BME280;23698;52.014;5.190;2023-04-04T11:29:52;102869.97;;;12.41;71.52
37860;BME280;23698;52.014;5.190;2023-04-04T11:32:46;102862.94;;;12.21;73.72
37860;BME280;23698;52.014;5.190;2023-04-04T11:35:45;102860.84;;;12.15;72.72
37860;BME280;23698;52.014;5.190;2023-04-04T11:38:33;102858.53;;;12.20;71.95
37860;BME280;23698;52.014;5.190;2023-04-04T11:41:21;102851.53;;;12.17;71.72
37860;BME280;23698;52.014;5.190;2023-04-04T11:44:08;102850.53;;;12.36;71.30
37860;BME280;23698;52.014;5.190;2023-04-04T11:46:57;102843.22;;;12.19;71.95
37860;BME280;23698;52.014;5.190;2023-04-04T11:49:48;102838.72;;;12.45;69.70
37860;BME280;23698;52.014;5.190;2023-04-04T11:52:35;102842.06;;;13.28;69.08
37860;BME280;23698;52.014;5.190;2023-04-04T11:55:23;102830.50;;;13.52;71.13
37860;BME280;23698;52.014;5.190;2023-04-04T11:58:11;102838.97;;;13.22;67.02
37860;BME280;23698;52.014;5.190;2023-04-04T12:00:58;102844.63;;;13.55;66.30
37860;BME280;23698;52.014;5.190;2023-04-04T12:03:45;102831.25;;;13.70;63.52
37860;BME280;23698;52.014;5.190;2023-04-04T12:06:33;102827.31;;;13.04;63.37
37860;BME280;23698;52.014;5.190;2023-04-04T12:09:22;102820.78;;;13.49;64.23
37860;BME280;23698;52.014;5.190;2023-04-04T12:12:11;102815.22;;;13.33;61.28
37860;BME280;23698;52.014;5.190;2023-04-04T12:14:59;102818.38;;;13.46;64.66
37860;BME280;23698;52.014;5.190;2023-04-04T12:17:59;102820.88;;;13.74;62.45
37860;BME280;23698;52.014;5.190;2023-04-04T12:20:50;102810.47;;;13.69;64.40
37860;BME280;23698;52.014;5.190;2023-04-04T12:23:38;102805.59;;;13.20;60.60
37860;BME280;23698;52.014;5.190;2023-04-04T12:26:26;102795.91;;;12.92;61.56
37860;BME280;23698;52.014;5.190;2023-04-04T12:29:19;102793.28;;;12.82;62.02
37860;BME280;23698;52.014;5.190;2023-04-04T12:32:07;102797.44;;;13.20;60.92
37860;BME280;23698;52.014;5.190;2023-04-04T12:34:59;102793.34;;;12.46;61.41
37860;BME280;23698;52.014;5.190;2023-04-04T12:37:56;102783.69;;;12.52;64.72
37860;BME280;23698;52.014;5.190;2023-04-04T12:40:45;102780.31;;;13.28;61.78
37860;BME280;23698;52.014;5.190;2023-04-04T12:43:31;102782.91;;;13.38;59.33
37860;BME280;23698;52.014;5.190;2023-04-04T12:46:25;102783.31;;;13.51;57.83
37860;BME280;23698;52.014;5.190;2023-04-04T12:49:12;102778.97;;;13.67;58.95
37860;BME280;23698;52.014;5.190;2023-04-04T12:52:00;102774.16;;;13.00;60.63
37860;BME280;23698;52.014;5.190;2023-04-04T12:54:49;102770.34;;;12.84;62.38
37860;BME280;23698;52.014;5.190;2023-04-04T12:57:53;102764.47;;;12.71;62.83
37860;BME280;23698;52.014;5.190;2023-04-04T13:00:40;102766.41;;;12.61;62.46
37860;BME280;23698;52.014;5.190;2023-04-04T13:03:26;102760.53;;;12.47;62.71
37860;BME280;23698;52.014;5.190;2023-04-04T13:06:15;102759.16;;;13.56;59.87
37860;BME280;23698;52.014;5.190;2023-04-04T13:09:02;102746.53;;;14.72;56.76
37860;BME280;23698;52.014;5.190;2023-04-04T13:11:58;102747.69;;;14.20;58.52
37860;BME280;23698;52.014;5.190;2023-04-04T13:14:57;102747.69;;;14.20;57.64
37860;BME280;23698;52.014;5.190;2023-04-04T13:17:46;102737.03;;;13.68;59.14
37860;BME280;23698;52.014;5.190;2023-04-04T13:20:32;102739.44;;;13.71;60.08
37860;BME280;23698;52.014;5.190;2023-04-04T13:23:20;102728.28;;;14.31;58.53
37860;BME280;23698;52.014;5.190;2023-04-04T13:26:07;102720.81;;;13.15;58.34
37860;BME280;23698;52.014;5.190;2023-04-04T13:28:54;102725.94;;;13.53;64.55
37860;BME280;23698;52.014;5.190;2023-04-04T13:31:41;102723.09;;;13.28;59.65
37860;BME280;23698;52.014;5.190;2023-04-04T13:34:28;102724.53;;;13.40;61.18
37860;BME280;23698;52.014;5.190;2023-04-04T13:37:15;102714.50;;;12.80;58.93
37860;BME280;23698;52.014;5.190;2023-04-04T13:40:03;102710.47;;;12.84;61.49
37860;BME280;23698;52.014;5.190;2023-04-04T13:42:49;102703.00;;;13.29;62.00
37860;BME280;23698;52.014;5.190;2023-04-04T13:45:36;102696.50;;;13.56;61.06
37860;BME280;23698;52.014;5.190;2023-04-04T13:48:23;102696.28;;;13.50;61.30
37860;BME280;23698;52.014;5.190;2023-04-04T13:51:10;102696.66;;;13.12;60.07
37860;BME280;23698;52.014;5.190;2023-04-04T13:53:56;102694.88;;;12.95;59.47
37860;BME280;23698;52.014;5.190;2023-04-04T13:56:43;102682.25;;;14.04;59.11
37860;BME280;23698;52.014;5.190;2023-04-04T13:59:30;102677.97;;;14.09;57.76
37860;BME280;23698;52.014;5.190;2023-04-04T14:02:17;102674.91;;;14.37;58.00
37860;BME280;23698;52.014;5.190;2023-04-04T14:05:05;102668.56;;;14.45;59.51
37860;BME280;23698;52.014;5.190;2023-04-04T14:07:52;102661.66;;;14.90;57.37
37860;BME280;23698;52.014;5.190;2023-04-04T14:10:38;102668.28;;;14.07;58.76
37860;BME280;23698;52.014;5.190;2023-04-04T14:13:25;102668.28;;;14.07;57.16
37860;BME280;23698;52.014;5.190;2023-04-04T14:16:11;102662.28;;;14.20;57.54
37860;BME280;23698;52.014;5.190;2023-04-04T14:18:57;102659.13;;;13.32;59.29
37860;BME280;23698;52.014;5.190;2023-04-04T14:21:45;102661.28;;;14.12;59.70
37860;BME280;23698;52.014;5.190;2023-04-04T14:24:32;102645.75;;;13.64;57.29
37860;BME280;23698;52.014;5.190;2023-04-04T14:27:19;102640.72;;;14.82;59.32
37860;BME280;23698;52.014;5.190;2023-04-04T14:30:06;102638.16;;;15.98;56.30
37860;BME280;23698;52.014;5.190;2023-04-04T14:32:52;102636.84;;;16.76;54.45
37860;BME280;23698;52.014;5.190;2023-04-04T14:35:39;102649.75;;;14.83;56.02
37860;BME280;23698;52.014;5.190;2023-04-04T14:38:29;102637.41;;;15.58;52.86
37860;BME280;23698;52.014;5.190;2023-04-04T14:41:16;102637.72;;;15.00;55.55